Météo Nord-Pas-de-Calais   La météo au plus près de chez vous

Station météorologique

Observations météo à Quimper (29216)

29216001 82 m Dernier relevé à 11:42
19.3°C
Humidité 77 % Vent 20.2 km/h 1018.4 hPa

Journée consultée

Lundi 31 Août 2026

Synthèse de la journée

Périodes de référence en UTC

Température maximale

20.3°C

à 11:24

06h 06h

Température minimale

15.7°C

à 03:06

18h 18h

Rafale maximale

58 km/h

à 03:00

00h 00h

Précipitations

0 mm

Cumul quotidien

06h 06h

Ensoleillement

2h 44 mins

Durée quotidienne

00h 00h

Graphiques de la journée

Heure locale Réduire

Données détaillées

Relevés météo

Pas de 6 minutes Afficher les relevés infra-horaires
Relevés météo détaillés à Quimper pour le Lundi 31 Août 2026
Heure Température °C Point de rosée °C Humidité % Vent moyen (raf.), km/h Précipitations mm Température à 10 cm °C Température à 20 cm °C Température à 50 cm °C Visibilité m État du sol   Ensoleillement min Rayonnement global W/m² Pression hPa Nébulosité Octas
11:42 19.3 °C 15.2 °C 77 % 25 km/h (33 km/h) 0 mm0 mm 18.8 °C 19.1 °C 19.6 °C 59860 m 0   4 min 149.4 W/m² 1019.1 hPa
11:36 18.6 °C 14.1 °C 75 % 27 km/h (39 km/h) 0 mm0 mm 18.8 °C 19.1 °C 19.6 °C 57580 m 0   0 min 35.5 W/m² 1019.1 hPa
11:30 19.5 °C 14.5 °C 73 % 28 km/h (40 km/h) 0 mm0 mm 18.8 °C 19.1 °C 19.5 °C 58250 m 0   0 min 89.9 W/m² 1019 hPa
11:24 20.3 °C 15.3 °C 73 % 25 km/h (40 km/h) 0 mm0 mm 18.7 °C 19.1 °C 19.5 °C 58690 m 0   6 min 213.6 W/m² 1018.9 hPa
11:18 20.1 °C 14.9 °C 72 % 24 km/h (38 km/h) 0 mm0 mm 18.7 °C 19.2 °C 19.6 °C 58560 m 0   6 min 215.4 W/m² 1018.8 hPa
11:12 19.8 °C 14.4 °C 71 % 24 km/h (38 km/h) 0 mm0 mm 18.7 °C 19.1 °C 19.6 °C 60000 m 0   6 min 213.8 W/m² 1018.7 hPa
11:06 19.7 °C 14.7 °C 73 % 26 km/h (35 km/h) 0 mm0 mm 18.7 °C 19.2 °C 19.6 °C 59370 m 0   6 min 210.4 W/m² 1018.8 hPa
11:00 19.6 °C 14.8 °C 74 % 26 km/h (36 km/h) 0 mm0 mm 18.8 °C 19.2 °C 19.6 °C 19960 m 0   6 min 187.8 W/m² 1018.7 hPa 7 Octas
10:54 19.9 °C 15.5 °C 76 % 23 km/h (36 km/h) 0 mm0 mm 18.7 °C 19.2 °C 19.6 °C 19960 m 0   6 min 217.1 W/m² 1018.6 hPa
10:48 18.9 °C 15.2 °C 79 % 20 km/h (31 km/h) 0 mm0 mm 18.7 °C 19.2 °C 19.6 °C 53100 m 0   2 min 127.4 W/m² 1018.5 hPa
10:42 18.6 °C 14.5 °C 77 % 20 km/h (31 km/h) 0 mm0 mm 18.8 °C 19.2 °C 19.6 °C 51570 m 0   2 min 98.7 W/m² 1018.4 hPa
10:36 18.5 °C 14.6 °C 78 % 21 km/h (31 km/h) 0 mm0 mm 18.7 °C 19.2 °C 19.6 °C 50210 m 0   0 min 76.4 W/m² 1018.4 hPa
10:30 18.6 °C 14.9 °C 79 % 22 km/h (32 km/h) 0 mm0 mm 18.8 °C 19.2 °C 19.5 °C 19990 m 0   0 min 67.6 W/m² 1018.3 hPa
10:24 18.8 °C 15.3 °C 80 % 20 km/h (32 km/h) 0 mm0 mm 18.8 °C 19.2 °C 19.6 °C 19990 m 0   0 min 77.5 W/m² 1018.2 hPa
10:18 18.8 °C 15.1 °C 79 % 17 km/h (31 km/h) 0 mm0 mm 18.8 °C 19.2 °C 19.6 °C 43870 m 0   4 min 124.4 W/m² 1018.2 hPa
10:12 18.7 °C 15.4 °C 81 % 16 km/h (25 km/h) 0 mm0 mm 18.8 °C 19.2 °C 19.6 °C 19830 m 0   2 min 104.5 W/m² 1018.1 hPa
10:06 18.9 °C 15.6 °C 81 % 15 km/h (23 km/h) 0 mm0 mm 18.8 °C 19.2 °C 19.5 °C 19770 m 0   6 min 140.7 W/m² 1018 hPa
10:00 18.7 °C 15.8 °C 83 % 16 km/h (26 km/h) 0 mm0 mm 18.8 °C 19.2 °C 19.6 °C 19350 m 0   5 min 120.1 W/m² 1017.9 hPa 6 Octas
09:54 18.6 °C 15.7 °C 83 % 15 km/h (26 km/h) 0 mm0 mm 18.8 °C 19.2 °C 19.5 °C 19080 m 0   6 min 130.5 W/m² 1017.9 hPa
09:48 18.3 °C 15.5 °C 84 % 13 km/h (19 km/h) 0 mm0 mm 18.8 °C 19.2 °C 19.6 °C 19990 m 0   6 min 117.6 W/m² 1017.8 hPa
09:42 18.1 °C 15.7 °C 86 % 13 km/h (20 km/h) 0 mm0 mm 18.8 °C 19.2 °C 19.5 °C 19920 m 0   6 min 113.9 W/m² 1017.7 hPa
09:36 17.9 °C 15.5 °C 86 % 11 km/h (20 km/h) 0 mm0 mm 18.8 °C 19.3 °C 19.6 °C 19220 m 6 min 101.5 W/m² 1017.7 hPa
09:30 17.5 °C 15.3 °C 87 % 9 km/h (14 km/h) 0 mm0 mm 18.8 °C 19.3 °C 19.6 °C 19860 m 1   5 min 86.7 W/m² 1017.6 hPa
09:24 17.3 °C 15.1 °C 87 % 13 km/h (23 km/h) 0 mm0 mm 18.8 °C 19.3 °C 19.6 °C 19610 m 1   1 min 45.8 W/m² 1017.6 hPa
09:18 17.3 °C 15.1 °C 87 % 13 km/h (23 km/h) 0 mm0 mm 18.8 °C 19.3 °C 19.6 °C 19860 m 1   1 min 47.9 W/m² 1017.5 hPa
09:12 17.4 °C 15.4 °C 88 % 13 km/h (18 km/h) 0 mm0 mm 18.9 °C 19.3 °C 19.6 °C 19670 m 1   5 min 52 W/m² 1017.4 hPa
09:06 17.4 °C 15.4 °C 88 % 13 km/h (20 km/h) 0 mm0 mm 18.8 °C 19.3 °C 19.6 °C 19820 m 1   6 min 78 W/m² 1017.3 hPa
09:00 17.2 °C 15.2 °C 88 % 13 km/h (20 km/h) 0 mm0 mm 18.9 °C 19.3 °C 19.6 °C 19910 m 1   6 min 62.1 W/m² 1017.3 hPa
08:54 17 °C 15 °C 88 % 12 km/h (22 km/h) 0 mm0 mm 18.9 °C 19.3 °C 19.6 °C 19710 m 1   6 min 56.3 W/m² 1017.2 hPa
08:48 16.9 °C 15.1 °C 89 % 12 km/h (20 km/h) 0 mm0 mm 18.9 °C 19.3 °C 19.5 °C 19020 m 1   6 min 52.7 W/m² 1017.2 hPa
08:42 16.7 °C 14.9 °C 89 % 12 km/h (19 km/h) 0 mm0 mm 18.9 °C 19.3 °C 19.6 °C 18900 m 1   6 min 44.9 W/m² 1017.2 hPa
08:36 16.6 °C 15 °C 90 % 11 km/h (18 km/h) 0 mm0 mm 18.9 °C 19.4 °C 19.6 °C 19620 m 1   6 min 38.6 W/m² 1017.1 hPa
08:30 16.5 °C 14.9 °C 90 % 11 km/h (18 km/h) 0 mm0 mm 18.9 °C 19.3 °C 19.6 °C 19180 m 1   6 min 32.7 W/m² 1017 hPa
08:24 16.3 °C 14.7 °C 90 % 11 km/h (17 km/h) 0 mm0 mm 18.9 °C 19.4 °C 19.6 °C 19060 m 1   6 min 26.8 W/m² 1016.8 hPa
08:18 16.2 °C 14.7 °C 91 % 12 km/h (21 km/h) 0 mm0 mm 18.9 °C 19.4 °C 19.6 °C 19040 m 1   6 min 21.5 W/m² 1016.7 hPa
08:12 16.2 °C 14.7 °C 91 % 12 km/h (21 km/h) 0 mm0 mm 19 °C 19.4 °C 19.6 °C 18580 m 1   6 min 16.8 W/m² 1016.6 hPa
08:06 16.1 °C 14.8 °C 92 % 12 km/h (20 km/h) 0 mm0 mm 19 °C 19.4 °C 19.6 °C 17110 m 1   6 min 11.5 W/m² 1016.6 hPa
08:00 16.1 °C 14.8 °C 92 % 13 km/h (20 km/h) 0 mm0 mm 19 °C 19.5 °C 19.6 °C 16330 m 1   1 min 2.7 W/m² 1016.5 hPa
07:54 16.1 °C 15 °C 93 % 13 km/h (19 km/h) 0 mm0 mm 19 °C 19.4 °C 19.6 °C 16580 m 1   0 min 0 W/m² 1016.4 hPa
07:48 16.1 °C 15 °C 93 % 12 km/h (18 km/h) 0 mm0 mm 19 °C 19.4 °C 19.5 °C 15230 m 1   0 min 0 W/m² 1016.4 hPa
07:42 16.1 °C 15 °C 93 % 10 km/h (16 km/h) 0 mm0 mm 19 °C 19.4 °C 19.6 °C 14920 m 1   0 min 0 W/m² 1016.3 hPa
07:36 16.1 °C 15 °C 93 % 11 km/h (17 km/h) 0 mm0 mm 19 °C 19.4 °C 19.6 °C 15550 m 1   0 min 0 W/m² 1016.2 hPa
07:30 16.2 °C 15.1 °C 93 % 13 km/h (22 km/h) 0 mm0 mm 19 °C 19.5 °C 19.6 °C 16150 m 1   0 min 0 W/m² 1016.1 hPa
07:24 16.2 °C 15.1 °C 93 % 14 km/h (23 km/h) 0 mm0 mm 19 °C 19.5 °C 19.6 °C 16380 m 1   0 min 0 W/m² 1016 hPa
07:18 16.1 °C 15 °C 93 % 13 km/h (21 km/h) 0 mm0 mm 19.1 °C 19.5 °C 19.6 °C 15670 m 1   0 min 0 W/m² 1015.9 hPa
07:12 16.1 °C 15.1 °C 94 % 13 km/h (22 km/h) 0 mm0 mm 19.1 °C 19.5 °C 19.6 °C 15360 m 1   0 min 0 W/m² 1015.8 hPa
07:06 16.1 °C 15.1 °C 94 % 13 km/h (21 km/h) 0 mm0 mm 19.1 °C 19.5 °C 19.6 °C 14830 m 1   0 min 0 W/m² 1015.8 hPa
07:00 16 °C 15 °C 94 % 12 km/h (18 km/h) 0 mm0 mm 19.1 °C 19.5 °C 19.6 °C 14630 m 1   0 min 0 W/m² 1015.7 hPa
06:54 16 °C 15 °C 94 % 12 km/h (20 km/h) 0 mm0 mm 19.1 °C 19.6 °C 19.7 °C 15140 m 1   0 min 0 W/m² 1015.6 hPa
06:48 16 °C 14.9 °C 93 % 12 km/h (19 km/h) 0 mm0 mm 19.1 °C 19.5 °C 19.6 °C 15750 m 1   0 min 0 W/m² 1015.5 hPa
06:42 16.1 °C 15 °C 93 % 13 km/h (19 km/h) 0 mm0 mm 19.1 °C 19.5 °C 19.6 °C 15900 m 1   0 min 0 W/m² 1015.5 hPa
06:36 16.1 °C 15 °C 93 % 13 km/h (21 km/h) 0 mm0 mm 19.1 °C 19.5 °C 19.6 °C 15800 m 1   0 min 0 W/m² 1015.4 hPa
06:30 16.1 °C 14.8 °C 92 % 14 km/h (22 km/h) 0 mm0 mm 19.2 °C 19.6 °C 19.6 °C 16390 m 1   0 min 0 W/m² 1015.4 hPa
06:24 16.1 °C 14.8 °C 92 % 14 km/h (22 km/h) 0 mm0 mm 19.2 °C 19.5 °C 19.6 °C 15760 m 1   0 min 0 W/m² 1015.3 hPa
06:18 16.1 °C 14.8 °C 92 % 13 km/h (19 km/h) 0 mm0 mm 19.2 °C 19.5 °C 19.6 °C 16190 m 1   0 min 0 W/m² 1015.3 hPa
06:12 16.1 °C 14.8 °C 92 % 13 km/h (23 km/h) 0 mm0 mm 19.2 °C 19.6 °C 19.6 °C 15920 m 1   0 min 0 W/m² 1015.3 hPa
06:06 16.2 °C 14.9 °C 92 % 15 km/h (23 km/h) 0 mm0 mm 19.2 °C 19.6 °C 19.6 °C 16220 m 1   0 min 0 W/m² 1015.2 hPa
06:00 16.2 °C 14.7 °C 91 % 15 km/h (23 km/h) 0 mm0 mm 19.2 °C 19.6 °C 19.6 °C 16900 m 1   0 min 0 W/m² 1015.2 hPa
05:54 16.3 °C 15 °C 92 % 15 km/h (23 km/h) 0 mm0 mm 19.2 °C 19.6 °C 19.6 °C 16760 m 1   0 min 0 W/m² 1015.2 hPa
05:48 16.1 °C 14.8 °C 92 % 15 km/h (27 km/h) 0 mm0 mm 19.2 °C 19.6 °C 19.6 °C 16770 m 1   0 min 0 W/m² 1015.1 hPa
05:42 16.1 °C 14.8 °C 92 % 15 km/h (22 km/h) 0 mm0 mm 19.2 °C 19.6 °C 19.6 °C 16260 m 1   0 min 0 W/m² 1015.1 hPa
05:36 16.1 °C 14.8 °C 92 % 14 km/h (22 km/h) 0 mm0 mm 19.3 °C 19.6 °C 19.6 °C 16020 m 1   0 min 0 W/m² 1015.1 hPa
05:30 16.1 °C 15 °C 93 % 14 km/h (22 km/h) 0 mm0 mm 19.3 °C 19.6 °C 19.6 °C 15660 m 1   0 min 0 W/m² 1015 hPa
05:24 16.2 °C 15.1 °C 93 % 14 km/h (22 km/h) 0 mm0 mm 19.3 °C 19.7 °C 19.6 °C 15610 m 1   0 min 0 W/m² 1015 hPa
05:18 16.2 °C 14.9 °C 92 % 15 km/h (24 km/h) 0 mm0 mm 19.3 °C 19.6 °C 19.6 °C 15580 m 1   0 min 0 W/m² 1015 hPa
05:12 16.3 °C 15 °C 92 % 16 km/h (25 km/h) 0 mm0 mm 19.3 °C 19.6 °C 19.6 °C 15560 m 1   0 min 0 W/m² 1015 hPa
05:06 16.4 °C 15.1 °C 92 % 17 km/h (28 km/h) 0 mm0 mm 19.3 °C 19.7 °C 19.6 °C 14620 m 1   0 min 0 W/m² 1014.9 hPa
05:00 16.4 °C 15.1 °C 92 % 16 km/h (28 km/h) 0 mm0 mm 19.3 °C 19.7 °C 19.6 °C 14310 m 1   0 min 0 W/m² 1014.8 hPa 6 Octas
04:54 16.5 °C 15.2 °C 92 % 15 km/h (27 km/h) 0 mm0 mm 19.3 °C 19.7 °C 19.5 °C 15060 m 1   0 min 0 W/m² 1014.8 hPa
04:48 16.5 °C 15.2 °C 92 % 17 km/h (27 km/h) 0 mm0 mm 19.4 °C 19.7 °C 19.6 °C 15250 m 1   0 min 0 W/m² 1014.8 hPa
04:42 16.5 °C 15.4 °C 93 % 18 km/h (26 km/h) 0 mm0 mm 19.4 °C 19.7 °C 19.6 °C 15120 m 1   0 min 0 W/m² 1014.7 hPa
04:36 16.4 °C 15.4 °C 94 % 16 km/h (26 km/h) 0 mm0 mm 19.4 °C 19.7 °C 19.6 °C 14730 m 1   0 min 0 W/m² 1014.7 hPa
04:30 16.4 °C 15.4 °C 94 % 15 km/h (26 km/h) 0 mm0 mm 19.4 °C 19.7 °C 19.6 °C 15670 m 1   0 min 0 W/m² 1014.7 hPa
04:24 16.3 °C 15.3 °C 94 % 15 km/h (24 km/h) 0 mm0 mm 19.4 °C 19.7 °C 19.6 °C 12470 m 1   0 min 0 W/m² 1014.7 hPa
04:18 16.3 °C 15.3 °C 94 % 14 km/h (24 km/h) 0 mm0 mm 19.4 °C 19.7 °C 19.6 °C 13250 m 1   0 min 0 W/m² 1014.6 hPa
04:12 16.2 °C 15.2 °C 94 % 12 km/h (19 km/h) 0 mm0 mm 19.5 °C 19.7 °C 19.6 °C 15170 m 1   0 min 0 W/m² 1014.5 hPa
04:06 16.2 °C 15.2 °C 94 % 13 km/h (22 km/h) 0 mm0 mm 19.5 °C 19.8 °C 19.6 °C 16010 m 1   0 min 0 W/m² 1014.5 hPa
04:00 16.2 °C 15.2 °C 94 % 13 km/h (22 km/h) 0 mm0 mm 19.5 °C 19.7 °C 19.6 °C 16250 m 1   0 min 0 W/m² 1014.5 hPa 6 Octas
03:54 16.2 °C 15.2 °C 94 % 12 km/h (19 km/h) 0 mm0 mm 19.5 °C 19.8 °C 19.6 °C 16380 m 1   0 min 0 W/m² 1014.5 hPa
03:48 16.2 °C 15.2 °C 94 % 13 km/h (23 km/h) 0 mm0 mm 19.5 °C 19.8 °C 19.6 °C 16520 m 1   0 min 0 W/m² 1014.5 hPa
03:42 16.2 °C 15.1 °C 93 % 12 km/h (21 km/h) 0 mm0 mm 19.5 °C 19.8 °C 19.6 °C 17460 m 1   0 min 0 W/m² 1014.4 hPa
03:36 16.3 °C 15.2 °C 93 % 14 km/h (23 km/h) 0 mm0 mm 19.5 °C 19.8 °C 19.6 °C 18990 m 1   0 min 0 W/m² 1014.4 hPa
03:30 16.3 °C 15.3 °C 94 % 15 km/h (30 km/h) 0 mm0 mm 19.6 °C 19.8 °C 19.6 °C 19650 m 1   0 min 0 W/m² 1014.3 hPa
03:24 16.1 °C 15 °C 93 % 16 km/h (28 km/h) 0 mm0 mm 19.6 °C 19.8 °C 19.6 °C 19890 m 1   0 min 0 W/m² 1014.5 hPa
03:18 16 °C 14.9 °C 93 % 17 km/h (28 km/h) 0 mm0 mm 19.6 °C 19.8 °C 19.6 °C 19890 m 2   0 min 0 W/m² 1014.4 hPa
03:12 15.9 °C 14.6 °C 92 % 19 km/h (29 km/h) 0 mm0 mm 19.6 °C 19.8 °C 19.6 °C 53920 m 2   0 min 0 W/m² 1014.4 hPa
03:06 15.7 °C 14.2 °C 91 % 27 km/h (58 km/h) 0 mm0 mm 19.6 °C 19.9 °C 19.6 °C 7910 m 2   0 min 0 W/m² 1014.4 hPa
03:00 15.9 °C 14.1 °C 89 % 27 km/h (58 km/h) 0 mm0 mm 19.7 °C 19.8 °C 19.6 °C 8010 m 2   0 min 0 W/m² 1014.5 hPa 6 Octas
02:54 16.6 °C 15.1 °C 91 % 17 km/h (28 km/h) 0 mm0 mm 19.6 °C 19.9 °C 19.6 °C 16570 m 1   0 min 0 W/m² 1014.3 hPa
02:48 16.6 °C 15.1 °C 91 % 15 km/h (24 km/h) 0 mm0 mm 19.7 °C 19.8 °C 19.6 °C 16000 m 1   0 min 0 W/m² 1014.1 hPa
02:42 16.4 °C 14.9 °C 91 % 16 km/h (26 km/h) 0 mm0 mm 19.7 °C 19.9 °C 19.6 °C 15930 m 1   0 min 0 W/m² 1014.2 hPa
02:36 16.4 °C 15.1 °C 92 % 15 km/h (26 km/h) 0 mm0 mm 19.7 °C 19.9 °C 19.6 °C 16560 m 1   0 min 0 W/m² 1014.2 hPa
02:30 16.4 °C 15.1 °C 92 % 14 km/h (27 km/h) 0 mm0 mm 19.7 °C 19.9 °C 19.5 °C 16550 m 1   0 min 0 W/m² 1014.1 hPa
02:24 16.4 °C 15.1 °C 92 % 15 km/h (27 km/h) 0 mm0 mm 19.7 °C 19.9 °C 19.6 °C 16120 m 1   0 min 0 W/m² 1014.1 hPa
02:18 16.3 °C 15 °C 92 % 15 km/h (27 km/h) 0 mm0 mm 19.7 °C 19.9 °C 19.5 °C 16740 m 1   0 min 0 W/m² 1014.1 hPa
02:12 16.4 °C 15.1 °C 92 % 15 km/h (23 km/h) 0 mm0 mm 19.7 °C 19.9 °C 19.6 °C 18410 m 1   0 min 0 W/m² 1014.1 hPa
02:06 16.4 °C 15.1 °C 92 % 17 km/h (26 km/h) 0 mm0 mm 19.8 °C 19.9 °C 19.5 °C 19090 m 1   0 min 0 W/m² 1014.1 hPa
02:00 16.3 °C 14.8 °C 91 % 18 km/h (28 km/h) 0 mm0.4 mm 19.8 °C 19.9 °C 19.6 °C 19180 m 1   0 min 0 W/m² 1014.1 hPa 7 Octas
01:54 16.3 °C 14.8 °C 91 % 17 km/h (28 km/h) 0 mm0 mm 19.8 °C 19.9 °C 19.5 °C 19240 m 1   0 min 0 W/m² 1014 hPa
01:48 16.2 °C 14.7 °C 91 % 18 km/h (31 km/h) 0 mm0 mm 19.8 °C 19.9 °C 19.6 °C 19740 m 1   0 min 0 W/m² 1014 hPa
01:42 16 °C 14.5 °C 91 % 19 km/h (31 km/h) 0 mm0 mm 19.8 °C 19.9 °C 19.6 °C 19980 m 2   0 min 0 W/m² 1014.1 hPa
01:36 16 °C 14.5 °C 91 % 18 km/h (31 km/h) 0 mm0 mm 19.8 °C 20 °C 19.6 °C 47720 m 2   0 min 0 W/m² 1014.1 hPa
01:30 15.9 °C 14.4 °C 91 % 23 km/h (44 km/h) 0 mm0 mm 19.9 °C 19.9 °C 19.6 °C 5720 m 2   0 min 0 W/m² 1014.1 hPa
01:24 16.1 °C 14.6 °C 91 % 26 km/h (44 km/h) 0.4 mm0 mm 19.9 °C 20 °C 19.6 °C 3660 m 2   0 min 0 W/m² 1014.1 hPa
01:18 17 °C 15.3 °C 90 % 18 km/h (32 km/h) 0 mm0 mm 19.9 °C 19.9 °C 19.5 °C 7930 m 1   0 min 0 W/m² 1014 hPa
01:12 16.9 °C 15.1 °C 89 % 15 km/h (24 km/h) 0 mm0 mm 19.9 °C 20 °C 19.6 °C 16940 m 1   0 min 0 W/m² 1013.8 hPa
01:06 16.8 °C 15 °C 89 % 15 km/h (25 km/h) 0 mm0 mm 19.9 °C 20 °C 19.6 °C 18370 m 1   0 min 0 W/m² 1013.7 hPa
01:00 16.8 °C 15 °C 89 % 14 km/h (25 km/h) 0 mm0 mm 19.9 °C 20 °C 19.6 °C 17810 m 1   0 min 0 W/m² 1013.7 hPa
00:54 16.7 °C 14.9 °C 89 % 14 km/h (22 km/h) 0 mm0 mm 20 °C 20 °C 19.5 °C 17800 m 1   0 min 0 W/m² 1013.7 hPa
00:48 16.7 °C 14.9 °C 89 % 15 km/h (27 km/h) 0 mm0 mm 19.9 °C 20 °C 19.6 °C 17760 m 1   0 min 0 W/m² 1013.6 hPa
00:42 16.8 °C 15 °C 89 % 16 km/h (27 km/h) 0 mm0 mm 20 °C 20 °C 19.5 °C 16990 m 1   0 min 0 W/m² 1013.7 hPa
00:36 16.8 °C 15.1 °C 90 % 15 km/h (24 km/h) 0 mm0 mm 19.9 °C 20 °C 19.5 °C 16740 m 1   0 min 0 W/m² 1013.7 hPa
00:30 16.7 °C 15.1 °C 90 % 14 km/h (24 km/h) 0 mm0 mm 20 °C 20 °C 19.6 °C 16790 m 1   0 min 0 W/m² 1013.6 hPa
00:24 16.8 °C 15.1 °C 90 % 15 km/h (26 km/h) 0 mm0 mm 20 °C 20 °C 19.6 °C 16820 m 1   0 min 0 W/m² 1013.6 hPa
00:18 16.8 °C 15.1 °C 90 % 16 km/h (26 km/h) 0 mm0 mm 20 °C 20 °C 19.6 °C 17220 m 1   0 min 0 W/m² 1013.5 hPa
00:12 16.7 °C 15.1 °C 90 % 15 km/h (26 km/h) 0 mm0 mm 20 °C 20 °C 19.6 °C 16660 m 1   0 min 0 W/m² 1013.4 hPa
00:06 16.8 °C 15.3 °C 91 % 18 km/h (27 km/h) 0 mm0 mm 20.1 °C 20 °C 19.6 °C 16260 m 2   0 min 0 W/m² 1013.4 hPa
00:00 16.8 °C 15.5 °C 92 % 18 km/h (27 km/h) 0 mm0.2 mm 20.1 °C 20.1 °C 19.6 °C 15890 m 2   0 min 0 W/m² 1013.4 hPa 6 Octas

Données via Météo-France

Relevés météo à Quimper

Cette page rassemble les observations de la station de Quimper : température, humidité, vent, précipitations et pression atmosphérique. Les graphiques facilitent le suivi de la journée, tandis que le tableau donne accès aux mesures horaires et infra-horaires disponibles.

Pour replacer ces mesures dans leur contexte, consultez la climatologie de Quimper ainsi que ses normales et records. Retrouvez aussi la carte des observations météo en temps réel.